Time;durP1;ratioP1;P1;durP2;ratioP2;P2;SDS_P1;SDS_P2;PMS_P1;PMS_P2;Temp;Humidity;BMP_temperature;BMP_pressure;BME280_temperature;BME280_humidity;BME280_pressure;Samples;Min_cycle;Max_cycle;Signal;HPM_P1;HPM_P2
2022/04/14 00:00:24;;;;;;;22.52;10.68;;;;;;;3.61;57.05;99656.17;1728770;82;21616;-81
2022/04/14 00:02:54;;;;;;;20.60;9.45;;;;;;;3.57;57.92;99660.41;1725994;82;21510;-80
2022/04/14 00:05:22;;;;;;;25.20;10.58;;;;;;;3.56;55.06;99669.38;1748058;82;20999;-80
2022/04/14 00:07:49;;;;;;;24.12;9.90;;;;;;;3.51;54.04;99660.33;1747547;82;21010;-80
2022/04/14 00:10:16;;;;;;;19.10;9.03;;;;;;;3.51;57.35;99658.19;1747275;82;20995;-80
2022/04/14 00:12:43;;;;;;;22.55;9.78;;;;;;;3.46;55.80;99653.00;1729883;82;20979;-80
2022/04/14 00:15:11;;;;;;;29.55;10.25;;;;;;;3.43;58.38;99655.52;1745764;82;21491;-80
2022/04/14 00:17:38;;;;;;;25.32;9.33;;;;;;;3.41;58.76;99659.78;1747261;82;21402;-80
2022/04/14 00:20:08;;;;;;;22.85;9.10;;;;;;;3.40;58.65;99660.61;1745920;81;21611;-80
2022/04/14 00:22:36;;;;;;;21.35;9.15;;;;;;;3.36;60.31;99666.16;1778624;81;21017;-80
2022/04/14 00:25:05;;;;;;;25.60;10.32;;;;;;;3.34;59.42;99656.28;1773749;81;21494;-79
2022/04/14 00:27:32;;;;;;;28.10;9.00;;;;;;;3.33;60.12;99657.53;1778607;81;21026;-80
2022/04/14 00:29:59;;;;;;;33.33;11.45;;;;;;;3.33;62.01;99667.81;1778096;81;21552;-80
2022/04/14 00:32:25;;;;;;;28.67;10.50;;;;;;;3.31;61.43;99666.94;1758057;81;20979;-80
2022/04/14 00:34:52;;;;;;;29.10;10.90;;;;;;;3.27;61.17;99662.16;1778814;81;21004;-80
2022/04/14 00:37:19;;;;;;;26.85;10.25;;;;;;;3.24;59.91;99654.40;1757192;81;21018;-79
2022/04/14 00:39:46;;;;;;;24.92;10.45;;;;;;;3.25;60.00;99657.42;1778534;81;20975;-80
2022/04/14 00:42:13;;;;;;;27.93;9.88;;;;;;;3.24;58.76;99657.40;1778766;81;21045;-79
2022/04/14 00:44:41;;;;;;;29.37;11.20;;;;;;;3.22;60.30;99658.66;1778619;81;21517;-81
2022/04/14 00:47:10;;;;;;;22.37;8.95;;;;;;;3.22;62.72;99662.94;1778388;81;21042;-81
2022/04/14 00:49:37;;;;;;;28.52;10.23;;;;;;;3.19;60.88;99653.49;1778722;81;21522;-80
2022/04/14 00:52:04;;;;;;;26.45;9.70;;;;;;;3.19;61.77;99649.64;1778539;81;21034;-80
2022/04/14 00:54:32;;;;;;;26.33;10.13;;;;;;;3.19;60.35;99647.07;1778544;81;21057;-80
2022/04/14 00:57:00;;;;;;;21.75;9.80;;;;;;;3.16;58.42;99649.58;1759141;81;21027;-79
2022/04/14 00:59:27;;;;;;;26.33;8.98;;;;;;;3.07;60.33;99640.05;1776741;81;20994;-78
2022/04/14 01:01:55;;;;;;;25.57;10.15;;;;;;;3.04;62.52;99639.14;1777976;81;21077;-78
2022/04/14 01:04:23;;;;;;;23.42;9.38;;;;;;;3.02;62.05;99638.26;1756764;81;21006;-78
2022/04/14 01:06:51;;;;;;;20.62;9.35;;;;;;;2.99;64.21;99644.23;1778376;81;21018;-80
2022/04/14 01:09:21;;;;;;;24.92;10.00;;;;;;;2.97;62.37;99642.91;1778475;81;20982;-80
2022/04/14 01:11:50;;;;;;;24.18;9.33;;;;;;;2.89;60.56;99644.94;1755527;81;21478;-77
2022/04/14 01:14:28;;;;;;;30.48;11.83;;;;;;;2.80;60.88;99641.80;1778262;81;21486;-78
2022/04/14 01:17:04;;;;;;;29.40;10.10;;;;;;;2.72;57.52;99642.95;1778187;81;21025;-77
2022/04/14 01:19:32;;;;;;;36.63;10.15;;;;;;;2.56;60.84;99644.42;1778219;81;20955;-77
2022/04/14 01:22:24;;;;;;;30.12;9.53;;;;;;;2.55;64.04;99635.44;1780401;80;21026;-77
2022/04/14 01:24:57;;;;;;;25.35;9.00;;;;;;;2.55;58.99;99646.56;1780608;80;21054;-77
2022/04/14 01:27:25;;;;;;;30.27;9.23;;;;;;;2.55;63.07;99638.86;1749350;81;21041;-77
2022/04/14 01:29:52;;;;;;;43.75;9.43;;;;;;;2.58;62.92;99633.76;1769008;81;20987;-80
2022/04/14 01:32:21;;;;;;;31.82;9.93;;;;;;;2.62;63.36;99641.09;1749507;81;21036;-80
2022/04/14 01:34:51;;;;;;;27.55;8.98;;;;;;;2.63;63.77;99647.12;1768785;81;21051;-78
2022/04/14 01:37:17;;;;;;;26.85;8.93;;;;;;;2.64;63.38;99639.41;1746446;81;21080;-78
2022/04/14 01:39:44;;;;;;;28.83;10.95;;;;;;;2.63;62.37;99640.70;1768920;81;21038;-78
2022/04/14 01:42:11;;;;;;;33.78;12.53;;;;;;;2.58;62.36;99638.89;1768952;81;21038;-78
2022/04/14 01:44:38;;;;;;;50.12;15.70;;;;;;;2.59;65.34;99636.78;1749249;80;21539;-79
2022/04/14 01:47:05;;;;;;;48.35;13.68;;;;;;;2.60;63.59;99632.51;1779978;80;20958;-78
2022/04/14 01:49:32;;;;;;;45.35;15.88;;;;;;;2.59;64.81;99638.06;1768778;81;21611;-78
2022/04/14 01:51:59;;;;;;;55.25;18.07;;;;;;;2.58;64.25;99638.89;1749328;80;21037;-78
2022/04/14 01:54:26;;;;;;;60.17;19.35;;;;;;;2.57;64.90;99637.61;1779659;80;21002;-78
2022/04/14 01:56:52;;;;;;;72.50;20.55;;;;;;;2.54;64.28;99633.27;1747188;81;20982;-77
2022/04/14 01:59:19;;;;;;;96.50;23.00;;;;;;;2.53;63.11;99639.25;1768969;81;20979;-78
2022/04/14 02:01:46;;;;;;;82.47;20.85;;;;;;;2.50;63.40;99641.76;1768650;81;21022;-78
2022/04/14 02:04:13;;;;;;;42.58;13.58;;;;;;;2.50;64.59;99638.34;1749300;80;22298;-77
2022/04/14 02:06:41;;;;;;;34.00;10.78;;;;;;;2.48;65.50;99634.88;1780299;80;21017;-77
2022/04/14 02:09:08;;;;;;;17.82;7.62;;;;;;;2.41;66.12;99630.08;1769351;81;20968;-80
2022/04/14 02:11:34;;;;;;;23.62;8.18;;;;;;;2.38;64.57;99640.28;1770126;81;20986;-79
2022/04/14 02:14:01;;;;;;;20.55;7.85;;;;;;;2.32;65.19;99644.89;1749603;81;20997;-80
2022/04/14 02:16:28;;;;;;;16.32;5.90;;;;;;;2.28;63.04;99652.52;1773020;81;20986;-79
2022/04/14 02:18:55;;;;;;;13.72;6.33;;;;;;;2.24;65.11;99652.02;1749955;81;21045;-80
2022/04/14 02:21:22;;;;;;;14.33;6.47;;;;;;;2.22;64.57;99641.72;1770285;80;22084;-80
2022/04/14 02:23:49;;;;;;;20.65;6.50;;;;;;;2.20;64.78;99651.09;1780847;80;21126;-83
2022/04/14 02:26:16;;;;;;;16.02;6.97;;;;;;;2.15;61.79;99660.43;1780563;80;22201;-80
2022/04/14 02:28:43;;;;;;;16.50;5.75;;;;;;;2.12;65.29;99648.81;1780852;80;21010;-80
2022/04/14 02:31:09;;;;;;;16.37;6.12;;;;;;;2.08;65.11;99656.88;1780911;80;20967;-80
2022/04/14 02:33:36;;;;;;;13.15;5.65;;;;;;;2.08;65.57;99664.56;1780746;79;21057;-80
2022/04/14 02:36:03;;;;;;;17.12;6.42;;;;;;;2.06;63.67;99666.23;1780435;80;20979;-79
2022/04/14 02:38:30;;;;;;;17.62;6.90;;;;;;;2.06;64.08;99665.38;1758985;80;20984;-80
2022/04/14 02:40:57;;;;;;;13.22;5.60;;;;;;;2.05;64.57;99661.96;1780263;80;21021;-80
2022/04/14 02:43:23;;;;;;;16.23;6.75;;;;;;;2.06;65.83;99662.81;1760682;80;21476;-79
2022/04/14 02:45:50;;;;;;;16.80;6.22;;;;;;;2.06;64.82;99658.55;1777683;80;21070;-79
2022/04/14 02:48:16;;;;;;;15.63;7.05;;;;;;;2.07;65.64;99664.53;1778576;80;21399;-79
2022/04/14 02:50:43;;;;;;;13.32;6.47;;;;;;;2.08;63.18;99663.70;1780514;80;21477;-80
2022/04/14 02:53:11;;;;;;;18.50;6.45;;;;;;;2.05;64.53;99667.09;1780349;80;21010;-80
2022/04/14 02:55:37;;;;;;;18.95;6.83;;;;;;;2.03;65.87;99671.33;1780105;80;20958;-78
2022/04/14 02:58:04;;;;;;;12.43;5.60;;;;;;;2.04;65.23;99673.04;1780268;80;21545;-78
2022/04/14 03:00:31;;;;;;;17.98;6.95;;;;;;;2.03;65.54;99684.16;1780268;80;21013;-77
2022/04/14 03:02:59;;;;;;;16.50;7.33;;;;;;;2.05;65.06;99686.33;1780278;80;21042;-78
2022/04/14 03:05:25;;;;;;;16.12;6.62;;;;;;;2.06;65.80;99683.34;1780215;80;20959;-78
2022/04/14 03:07:52;;;;;;;19.02;6.83;;;;;;;2.05;65.16;99684.16;1780059;80;21533;-78
2022/04/14 03:10:19;;;;;;;14.33;6.53;;;;;;;2.04;64.62;99682.02;1780125;80;21034;-78
2022/04/14 03:12:47;;;;;;;23.18;7.03;;;;;;;2.03;66.04;99680.70;1780307;80;21002;-78
2022/04/14 03:15:14;;;;;;;20.77;6.95;;;;;;;2.01;66.37;99681.98;1751626;80;21492;-80
2022/04/14 03:17:41;;;;;;;18.45;7.00;;;;;;;2.00;66.87;99686.64;1766584;80;22203;-78
2022/04/14 03:20:09;;;;;;;14.10;6.87;;;;;;;1.98;64.91;99689.59;1780392;80;21050;-79
2022/04/14 03:22:37;;;;;;;28.45;8.90;;;;;;;1.98;65.59;99687.89;1772083;80;21125;-79
2022/04/14 03:25:07;;;;;;;32.42;11.35;;;;;;;1.98;65.91;99687.03;1771608;81;21017;-80
2022/04/14 03:27:36;;;;;;;32.23;11.75;;;;;;;1.94;66.45;99689.09;1773572;81;21562;-78
2022/04/14 03:30:05;;;;;;;32.50;12.03;;;;;;;1.90;65.57;99701.41;1771625;81;20999;-78
2022/04/14 03:32:34;;;;;;;25.57;10.03;;;;;;;1.87;65.77;99705.19;1765448;81;21034;-78
2022/04/14 03:35:07;;;;;;;35.60;11.30;;;;;;;1.82;67.42;99702.97;1740301;81;21058;-78
2022/04/14 03:37:34;;;;;;;31.10;11.12;;;;;;;1.79;64.64;99706.31;1765848;81;20999;-78
2022/04/14 03:40:00;;;;;;;28.07;8.98;;;;;;;1.75;65.78;99710.93;1771300;81;21010;-79
2022/04/14 03:42:27;;;;;;;24.55;9.03;;;;;;;1.73;67.71;99714.77;1772458;81;21010;-80
2022/04/14 03:44:54;;;;;;;25.60;8.90;;;;;;;1.73;67.38;99710.92;1773171;81;20987;-80
2022/04/14 03:47:20;;;;;;;30.20;9.90;;;;;;;1.74;65.26;99718.19;1771505;81;20982;-79
2022/04/14 03:49:47;;;;;;;31.57;10.35;;;;;;;1.70;67.01;99715.97;1771332;81;21062;-80
2022/04/14 03:52:13;;;;;;;51.77;11.30;;;;;;;1.70;68.06;99717.25;1771437;81;21002;-79
2022/04/14 03:54:40;;;;;;;31.35;10.78;;;;;;;1.69;64.46;99724.91;1771298;81;21014;-79
2022/04/14 03:57:07;;;;;;;28.92;9.98;;;;;;;1.65;68.03;99726.56;1771363;81;20995;-79
2022/04/14 03:59:34;;;;;;;20.05;8.68;;;;;;;1.64;67.00;99722.26;1773504;81;20985;-80
2022/04/14 04:02:01;;;;;;;23.07;8.93;;;;;;;1.66;67.01;99729.56;1776277;81;21054;-80
2022/04/14 04:04:28;;;;;;;25.90;9.33;;;;;;;1.67;67.16;99729.14;1772117;81;21014;-80
2022/04/14 04:06:54;;;;;;;18.00;8.65;;;;;;;1.68;64.64;99735.59;1771440;81;21014;-81
2022/04/14 04:09:21;;;;;;;42.65;11.63;;;;;;;1.70;66.42;99735.20;1771639;81;20983;-79
2022/04/14 04:11:48;;;;;;;32.15;12.33;;;;;;;1.73;63.67;99739.52;1771615;81;21530;-80
2022/04/14 04:14:14;;;;;;;52.90;17.30;;;;;;;1.72;65.57;99741.64;1771677;81;21356;-81
2022/04/14 04:16:41;;;;;;;49.75;15.60;;;;;;;1.68;66.43;99738.14;1771442;81;21518;-80
2022/04/14 04:19:08;;;;;;;45.35;13.60;;;;;;;1.62;66.48;99738.02;1771638;81;20993;-80
2022/04/14 04:21:35;;;;;;;46.15;12.75;;;;;;;1.62;68.60;99738.45;1772627;81;20999;-79
2022/04/14 04:24:02;;;;;;;46.10;14.18;;;;;;;1.64;65.58;99740.63;1771808;81;21058;-81
2022/04/14 04:26:28;;;;;;;45.00;13.40;;;;;;;1.67;66.80;99737.72;1771863;81;21038;-79
2022/04/14 04:28:56;;;;;;;30.30;12.07;;;;;;;1.67;65.83;99747.97;1763214;81;21482;-80
2022/04/14 04:31:22;;;;;;;35.28;11.78;;;;;;;1.62;67.50;99741.87;1759114;81;21026;-78
2022/04/14 04:33:51;;;;;;;25.37;9.35;;;;;;;1.63;68.32;99738.45;1771567;81;22242;-78
2022/04/14 04:36:18;;;;;;;37.75;10.10;;;;;;;1.62;68.28;99739.73;1755913;81;20994;-79
2022/04/14 04:38:44;;;;;;;18.48;8.93;;;;;;;1.61;69.06;99742.68;1762741;81;21058;-80
2022/04/14 04:41:11;;;;;;;20.90;8.90;;;;;;;1.61;67.83;99738.84;1754530;81;20994;-80
2022/04/14 04:43:38;;;;;;;18.17;9.08;;;;;;;1.64;67.80;99741.48;1772417;81;21046;-80
2022/04/14 04:46:05;;;;;;;17.20;8.10;;;;;;;1.71;64.66;99744.64;1760376;81;21058;-80
2022/04/14 04:48:32;;;;;;;25.95;9.50;;;;;;;1.76;67.04;99743.02;1771400;81;21055;-80
2022/04/14 04:50:58;;;;;;;18.25;8.90;;;;;;;1.81;67.85;99742.24;1771539;81;21045;-79
2022/04/14 04:53:25;;;;;;;17.92;8.90;;;;;;;1.83;68.93;99741.47;1771835;81;21015;-80
2022/04/14 04:55:52;;;;;;;24.32;9.23;;;;;;;1.91;67.71;99739.02;1771891;81;20966;-81
2022/04/14 04:58:18;;;;;;;31.60;9.20;;;;;;;2.01;66.87;99743.92;1771929;81;21021;-79
2022/04/14 05:00:45;;;;;;;22.32;9.60;;;;;;;2.09;68.15;99743.26;1771842;81;21510;-80
2022/04/14 05:03:13;;;;;;;25.48;9.78;;;;;;;2.19;67.02;99736.61;1771952;81;20991;-81
2022/04/14 05:05:40;;;;;;;28.38;9.68;;;;;;;2.29;67.36;99738.50;1771792;81;21002;-80
2022/04/14 05:08:08;;;;;;;24.35;9.53;;;;;;;2.42;67.90;99737.44;1771853;81;20997;-79
2022/04/14 05:10:34;;;;;;;23.18;10.55;;;;;;;2.53;66.70;99735.52;1759026;81;21026;-80
2022/04/14 05:13:02;;;;;;;24.25;10.05;;;;;;;2.66;67.50;99741.71;1763943;81;21507;-81
2022/04/14 05:15:28;;;;;;;21.97;10.18;;;;;;;2.76;67.27;99738.45;1771782;81;21134;-80
2022/04/14 05:17:55;;;;;;;35.55;11.60;;;;;;;2.87;66.41;99742.92;1771706;81;20994;-81
2022/04/14 05:20:22;;;;;;;22.00;9.65;;;;;;;2.93;66.79;99739.17;1771357;81;20983;-81
2022/04/14 05:22:48;;;;;;;24.35;10.08;;;;;;;3.01;68.16;99750.86;1771241;81;21086;-81
2022/04/14 05:25:15;;;;;;;24.85;10.38;;;;;;;3.10;66.40;99747.13;1768024;81;21038;-80
2022/04/14 05:27:42;;;;;;;20.37;9.33;;;;;;;3.16;66.53;99743.37;1764564;81;21771;-81
2022/04/14 05:30:11;;;;;;;30.37;11.65;;;;;;;3.23;66.42;99747.77;1765526;81;21013;-80
2022/04/14 05:32:38;;;;;;;35.55;11.88;;;;;;;3.29;64.98;99753.42;1771655;81;20971;-81
2022/04/14 05:35:07;;;;;;;29.98;11.65;;;;;;;3.31;65.25;99752.59;1771860;81;21074;-81
2022/04/14 05:37:35;;;;;;;33.23;11.93;;;;;;;3.37;64.32;99744.97;1772137;81;20975;-80
2022/04/14 05:40:04;;;;;;;37.75;13.28;;;;;;;3.45;65.59;99748.94;1772231;81;21014;-81
2022/04/14 05:42:31;;;;;;;35.45;13.80;;;;;;;3.55;64.29;99744.80;1774753;81;21529;-81
2022/04/14 05:45:01;;;;;;;36.05;14.70;;;;;;;3.60;64.57;99732.84;1771980;81;20998;-80
2022/04/14 05:47:28;;;;;;;31.87;13.50;;;;;;;3.67;63.54;99735.95;1772021;81;20998;-80
2022/04/14 05:49:54;;;;;;;32.50;13.38;;;;;;;3.79;64.03;99739.96;1772117;81;21046;-80
2022/04/14 05:52:22;;;;;;;24.70;9.90;;;;;;;3.90;63.93;99738.83;1768014;81;21026;-80
2022/04/14 05:54:49;;;;;;;28.07;10.68;;;;;;;4.03;62.68;99728.67;1754935;81;21079;-80
2022/04/14 05:57:17;;;;;;;24.10;11.33;;;;;;;4.24;63.51;99740.90;1774272;81;20998;-81
2022/04/14 05:59:44;;;;;;;31.77;11.28;;;;;;;4.39;63.51;99733.34;1772124;79;20987;-80
2022/04/14 06:02:11;;;;;;;23.42;9.88;;;;;;;4.53;63.49;99738.63;1751560;81;21549;-80
2022/04/14 06:04:37;;;;;;;26.62;10.23;;;;;;;4.60;63.41;99732.70;1771230;81;20991;-80
2022/04/14 06:07:04;;;;;;;24.85;10.35;;;;;;;4.77;63.57;99736.30;1771822;81;20994;-80
2022/04/14 06:09:31;;;;;;;25.80;10.90;;;;;;;4.92;62.43;99741.99;1771943;81;20999;-81
2022/04/14 06:11:58;;;;;;;24.87;9.55;;;;;;;5.05;62.57;99740.36;1751090;81;20975;-80
2022/04/14 06:14:26;;;;;;;24.95;10.18;;;;;;;5.17;61.40;99742.16;1772046;81;21081;-80
2022/04/14 06:16:53;;;;;;;24.55;9.38;;;;;;;5.28;61.58;99738.39;1771874;81;20978;-80
2022/04/14 06:19:20;;;;;;;23.83;9.70;;;;;;;5.37;60.57;99742.30;1772009;81;20971;-80
2022/04/14 06:21:46;;;;;;;21.95;8.88;;;;;;;5.47;61.03;99728.64;1771793;81;21079;-79
2022/04/14 06:24:13;;;;;;;19.92;8.68;;;;;;;5.58;60.42;99728.24;1774607;81;21160;-80
2022/04/14 06:26:40;;;;;;;20.17;9.00;;;;;;;5.69;60.44;99724.84;1774595;81;20950;-80
2022/04/14 06:29:07;;;;;;;20.17;8.23;;;;;;;5.82;59.39;99729.66;1757609;81;21002;-81
2022/04/14 06:31:35;;;;;;;21.42;8.33;;;;;;;5.89;58.23;99726.22;1777052;81;20943;-79
2022/04/14 06:34:03;;;;;;;17.17;8.53;;;;;;;6.00;58.08;99728.90;1777151;81;21077;-80
2022/04/14 06:36:30;;;;;;;23.10;8.20;;;;;;;6.11;58.04;99733.24;1774602;81;21529;-80
2022/04/14 06:38:57;;;;;;;17.12;8.38;;;;;;;6.18;57.46;99725.93;1777175;81;20963;-81
2022/04/14 06:41:25;;;;;;;18.60;7.65;;;;;;;6.29;57.53;99722.54;1776954;81;21692;-81
2022/04/14 06:43:51;;;;;;;15.53;7.08;;;;;;;6.41;57.50;99732.04;1777202;81;20987;-81
2022/04/14 06:46:18;;;;;;;14.53;7.08;;;;;;;6.53;56.46;99728.18;1777267;81;21062;-81
2022/04/14 06:48:45;;;;;;;15.35;6.90;;;;;;;6.65;56.53;99718.29;1777055;81;21591;-81
2022/04/14 06:51:12;;;;;;;14.93;7.60;;;;;;;6.76;54.87;99724.30;1776811;81;21038;-80
2022/04/14 06:53:38;;;;;;;13.32;6.40;;;;;;;6.86;55.98;99722.15;1777013;81;20991;-81
2022/04/14 06:56:06;;;;;;;13.98;6.90;;;;;;;7.01;54.92;99721.73;1776734;81;21030;-81
2022/04/14 06:58:32;;;;;;;11.68;5.92;;;;;;;7.13;54.97;99717.41;1777113;81;21557;-80
2022/04/14 07:00:59;;;;;;;16.85;6.85;;;;;;;7.25;54.96;99716.97;1777113;81;20986;-80
2022/04/14 07:03:28;;;;;;;14.47;6.47;;;;;;;7.36;54.54;99714.80;1773520;81;21501;-80
2022/04/14 07:06:00;;;;;;;18.80;6.35;;;;;;;7.52;54.47;99722.49;1754128;81;21029;-81
2022/04/14 07:08:29;;;;;;;15.05;6.05;;;;;;;7.66;53.89;99721.16;1776813;81;21569;-80
2022/04/14 07:10:59;;;;;;;9.63;5.72;;;;;;;7.80;54.16;99715.53;1776739;81;21017;-80
2022/04/14 07:13:25;;;;;;;11.18;5.83;;;;;;;7.95;52.69;99706.82;1755405;81;21518;-81
2022/04/14 07:15:52;;;;;;;11.12;5.87;;;;;;;8.08;52.38;99716.26;1773156;81;20990;-83
2022/04/14 07:18:19;;;;;;;15.50;6.05;;;;;;;8.21;51.87;99719.63;1775206;81;21517;-81
2022/04/14 07:20:46;;;;;;;15.98;6.22;;;;;;;8.31;52.20;99717.41;1776384;81;21014;-80
2022/04/14 07:23:13;;;;;;;12.82;6.03;;;;;;;8.45;52.07;99715.21;1753639;81;21549;-80
2022/04/14 07:25:39;;;;;;;14.95;6.42;;;;;;;8.59;51.57;99722.89;1771674;81;21006;-80
2022/04/14 07:28:07;;;;;;;14.53;7.35;;;;;;;8.70;51.39;99715.91;1769311;81;20986;-81
2022/04/14 07:30:33;;;;;;;14.05;6.75;;;;;;;8.83;51.46;99721.40;1771406;81;21070;-80
2022/04/14 07:33:05;;;;;;;14.58;6.53;;;;;;;8.96;51.06;99723.03;1771368;81;21047;-81
2022/04/14 07:35:32;;;;;;;18.50;6.53;;;;;;;9.10;51.17;99722.91;1771621;81;21034;-81
2022/04/14 07:37:59;;;;;;;13.28;5.97;;;;;;;9.24;50.00;99719.34;1771457;81;20983;-81
2022/04/14 07:40:26;;;;;;;14.63;5.58;;;;;;;9.37;49.85;99717.05;1774167;81;21026;-77
2022/04/14 07:42:56;;;;;;;11.05;5.15;;;;;;;9.51;48.99;99716.88;1773544;81;21034;-80
2022/04/14 07:45:23;;;;;;;11.43;5.53;;;;;;;9.62;47.84;99716.33;1772575;81;21042;-79
2022/04/14 07:47:50;;;;;;;12.90;5.47;;;;;;;9.79;48.72;99726.53;1771311;81;21462;-78
2022/04/14 07:50:20;;;;;;;9.98;4.67;;;;;;;9.92;48.00;99720.30;1771546;81;21015;-78
2022/04/14 07:52:57;;;;;;;12.85;5.55;;;;;;;10.05;46.45;99717.12;1771184;81;21057;-81
2022/04/14 07:55:27;;;;;;;17.12;5.45;;;;;;;10.15;45.10;99720.02;1771375;81;21003;-79
2022/04/14 07:57:57;;;;;;;10.80;4.05;;;;;;;10.25;42.72;99716.85;1771663;81;21470;-80
2022/04/14 08:00:26;;;;;;;14.18;4.37;;;;;;;10.39;45.42;99718.44;1771410;81;21053;-79
2022/04/14 08:02:59;;;;;;;14.23;5.17;;;;;;;10.57;43.68;99717.30;1772279;81;21091;-79
2022/04/14 08:05:39;;;;;;;12.73;4.85;;;;;;;10.70;42.58;99724.02;1773456;81;21050;-80
2022/04/14 08:08:10;;;;;;;13.18;4.72;;;;;;;10.80;43.07;99720.38;1773167;81;20974;-79
2022/04/14 08:10:39;;;;;;;11.93;4.62;;;;;;;10.92;43.41;99720.21;1772977;81;21030;-78
2022/04/14 08:13:05;;;;;;;12.35;5.35;;;;;;;11.05;42.95;99720.84;1771865;81;20995;-79
2022/04/14 08:15:32;;;;;;;8.95;4.37;;;;;;;11.18;44.33;99718.91;1771991;81;21066;-80
2022/04/14 08:17:58;;;;;;;14.43;4.97;;;;;;;11.33;43.84;99721.66;1771756;81;21474;-79
2022/04/14 08:20:27;;;;;;;9.95;4.83;;;;;;;11.43;41.68;99724.96;1771835;81;21007;-78
2022/04/14 08:22:57;;;;;;;9.03;4.58;;;;;;;11.51;40.65;99721.77;1771393;81;21038;-81
2022/04/14 08:25:28;;;;;;;8.95;3.98;;;;;;;11.63;42.60;99715.02;1750632;81;20998;-80
2022/04/14 08:27:58;;;;;;;20.30;5.03;;;;;;;11.77;42.60;99717.80;1772055;81;21062;-79
2022/04/14 08:30:27;;;;;;;8.75;4.22;;;;;;;11.94;42.25;99720.52;1771341;81;21026;-79
2022/04/14 08:32:55;;;;;;;6.95;3.45;;;;;;;12.07;42.05;99716.34;1771014;81;21007;-80
2022/04/14 08:35:22;;;;;;;6.75;3.47;;;;;;;12.19;41.60;99713.46;1771310;81;21010;-79
2022/04/14 08:37:50;;;;;;;8.30;3.60;;;;;;;12.36;41.98;99716.16;1771450;81;21482;-78
2022/04/14 08:40:21;;;;;;;11.33;4.10;;;;;;;12.49;40.60;99709.34;1750600;81;20970;-79
2022/04/14 08:43:01;;;;;;;10.75;3.75;;;;;;;12.62;40.65;99710.34;1771978;81;20997;-79
2022/04/14 08:45:34;;;;;;;9.03;3.87;;;;;;;12.71;40.50;99708.80;1763065;81;20987;-80
2022/04/14 08:48:03;;;;;;;9.43;3.87;;;;;;;12.80;38.38;99705.13;1771599;81;21030;-79
2022/04/14 08:50:32;;;;;;;10.40;4.15;;;;;;;12.88;39.68;99694.91;1770007;81;20975;-79
2022/04/14 08:53:05;;;;;;;5.58;3.15;;;;;;;13.00;39.56;99695.50;1753322;81;21014;-80
2022/04/14 08:55:32;;;;;;;8.98;3.60;;;;;;;13.12;39.39;99697.33;1774573;81;20990;-80
2022/04/14 08:58:00;;;;;;;6.78;3.22;;;;;;;13.25;39.24;99693.97;1771316;81;21015;-78
2022/04/14 09:00:27;;;;;;;9.55;3.77;;;;;;;13.38;38.65;99693.67;1771698;81;21002;-80
2022/04/14 09:02:56;;;;;;;9.05;3.83;;;;;;;13.45;38.13;99699.12;1771357;81;21030;-79
2022/04/14 09:05:23;;;;;;;8.30;3.75;;;;;;;13.47;37.98;99698.20;1771912;81;21070;-79
2022/04/14 09:07:51;;;;;;;8.15;3.25;;;;;;;13.52;38.17;99694.99;1770806;81;21054;-80
2022/04/14 09:10:19;;;;;;;13.98;5.10;;;;;;;13.59;33.34;99700.92;1760322;81;21074;-80
2022/04/14 09:12:50;;;;;;;8.25;3.20;;;;;;;13.68;35.94;99693.27;1771210;81;21018;-80
2022/04/14 09:15:18;;;;;;;6.45;3.40;;;;;;;13.76;37.64;99687.83;1772763;81;21152;-79
2022/04/14 09:17:45;;;;;;;10.40;3.55;;;;;;;13.86;37.60;99686.20;1775481;81;21804;-79
2022/04/14 09:20:41;;;;;;;18.25;4.30;;;;;;;14.00;37.64;99683.64;1766369;81;20929;-80
2022/04/14 09:23:22;;;;;;;10.78;4.05;;;;;;;14.08;36.74;99675.11;1763723;81;21050;-79
2022/04/14 09:25:52;;;;;;;8.80;3.35;;;;;;;14.23;37.22;99676.42;1777758;81;21026;-80
2022/04/14 09:28:21;;;;;;;8.93;3.40;;;;;;;14.38;37.71;99677.69;1767746;81;21531;-80
2022/04/14 09:31:07;;;;;;;12.65;3.60;;;;;;;14.49;37.68;99675.14;1765952;81;21006;-79
2022/04/14 09:33:45;;;;;;;9.40;3.35;;;;;;;14.61;34.80;99670.46;1770823;81;21014;-80
2022/04/14 09:36:16;;;;;;;9.18;3.70;;;;;;;14.74;35.26;99669.13;1776067;81;21098;-80
2022/04/14 09:39:07;;;;;;;8.43;3.60;;;;;;;14.87;35.87;99664.36;1755069;81;21051;-79
2022/04/14 09:41:37;;;;;;;6.75;3.25;;;;;;;14.90;33.05;99665.55;1777682;81;20998;-79
2022/04/14 09:44:08;;;;;;;10.05;3.52;;;;;;;14.90;32.68;99669.48;1776705;81;21525;-79
2022/04/14 09:46:37;;;;;;;6.45;3.10;;;;;;;15.01;34.41;99658.20;1776615;81;21034;-79
2022/04/14 09:49:07;;;;;;;7.47;2.90;;;;;;;15.19;34.91;99658.02;1776343;81;21042;-79
2022/04/14 09:51:36;;;;;;;6.37;2.95;;;;;;;15.35;33.14;99656.17;1777238;81;21003;-80
2022/04/14 09:54:18;;;;;;;6.08;3.17;;;;;;;15.43;31.55;99645.80;1777079;81;20963;-80
2022/04/14 09:56:58;;;;;;;8.30;3.40;;;;;;;15.53;30.61;99643.70;1777043;81;20986;-80
2022/04/14 09:59:26;;;;;;;9.23;2.98;;;;;;;15.62;31.95;99646.00;1775302;81;20986;-81
2022/04/14 10:02:16;;;;;;;6.95;2.92;;;;;;;15.69;32.19;99636.97;1753903;81;21058;-80
2022/04/14 10:04:47;;;;;;;7.17;3.25;;;;;;;15.79;33.85;99631.43;1748001;81;21002;-80
2022/04/14 10:07:19;;;;;;;9.18;3.08;;;;;;;15.97;33.86;99627.25;1768437;81;21010;-82
2022/04/14 10:09:51;;;;;;;9.88;3.17;;;;;;;16.15;33.33;99626.98;1762964;81;21462;-81
2022/04/14 10:12:26;;;;;;;12.70;3.35;;;;;;;16.30;32.82;99621.98;1759602;81;20988;-81
2022/04/14 10:15:04;;;;;;;6.47;2.95;;;;;;;16.48;32.81;99615.13;1795536;80;20995;-81
2022/04/14 10:17:38;;;;;;;19.75;3.37;;;;;;;16.67;32.45;99622.23;1765806;81;21039;-80
2022/04/14 10:20:09;;;;;;;11.88;2.62;;;;;;;16.79;30.85;99611.24;1765902;81;21478;-81
2022/04/14 10:22:42;;;;;;;7.30;2.17;;;;;;;16.93;29.63;99617.25;1752142;81;21145;-80
2022/04/14 10:25:07;;;;;;;8.33;2.87;;;;;;;16.97;30.04;99610.07;1760631;80;21030;-81
2022/04/14 10:27:37;;;;;;;4.97;2.37;;;;;;;17.07;30.06;99603.53;1772702;80;21035;-81
2022/04/14 10:30:06;;;;;;;5.65;2.60;;;;;;;17.20;30.05;99596.78;1772078;81;21070;-80
2022/04/14 10:32:34;;;;;;;6.03;3.08;;;;;;;17.30;26.67;99592.83;1774376;81;21046;-88
2022/04/14 10:35:05;;;;;;;6.30;2.60;;;;;;;17.36;28.28;99595.64;1775836;81;21054;-88
2022/04/14 10:37:45;;;;;;;7.20;2.27;;;;;;;17.39;27.64;99591.58;1775828;81;21059;-89
2022/04/14 10:40:14;;;;;;;6.83;2.20;;;;;;;17.43;26.82;99590.52;1775479;81;21510;-87
2022/04/14 10:42:49;;;;;;;5.05;2.17;;;;;;;17.51;27.35;99587.54;1768895;81;21091;-88
2022/04/14 10:45:23;;;;;;;9.03;2.90;;;;;;;17.65;27.04;99594.33;1768253;81;21054;-88
2022/04/14 10:47:57;;;;;;;9.58;2.70;;;;;;;17.73;26.78;99588.71;1768943;81;21027;-88
2022/04/14 10:50:34;;;;;;;7.05;2.37;;;;;;;17.89;27.17;99582.30;1741178;81;21067;-88
2022/04/14 10:53:20;;;;;;;4.53;2.20;;;;;;;18.03;26.85;99585.12;1769209;81;21042;-88
2022/04/14 10:55:50;;;;;;;5.83;2.37;;;;;;;18.18;26.55;99583.52;1769236;81;20971;-89
2022/04/14 10:58:46;;;;;;;5.90;2.58;;;;;;;18.44;27.59;99571.73;1769063;81;21046;-89
2022/04/14 11:01:14;;;;;;;5.62;2.55;;;;;;;18.75;27.81;99580.70;1767929;81;21035;-88
2022/04/14 11:03:52;;;;;;;6.47;2.83;;;;;;;19.00;27.25;99561.88;1769020;81;21026;-89
2022/04/14 11:06:41;;;;;;;7.92;2.75;;;;;;;19.25;26.14;99564.05;1769214;81;20979;-88
2022/04/14 11:09:08;;;;;;;5.17;2.42;;;;;;;19.51;26.58;99565.75;1758398;81;21086;-88
2022/04/14 11:12:00;;;;;;;6.25;2.30;;;;;;;19.69;25.50;99559.94;1740120;81;21289;-88
2022/04/14 11:14:27;;;;;;;5.62;2.37;;;;;;;19.76;25.83;99563.14;1775790;81;20964;-88
2022/04/14 11:16:53;;;;;;;5.35;2.72;;;;;;;19.78;25.06;99560.79;1775588;81;20990;-89
2022/04/14 11:19:27;;;;;;;6.33;2.65;;;;;;;20.02;25.00;99565.63;1775626;81;21015;-88
2022/04/14 11:22:04;;;;;;;;;;;;;;;20.18;24.69;99559.84;1778279;81;21113;-89
2022/04/14 11:24:40;;;;;;;6.28;2.62;;;;;;;20.38;25.42;99560.02;1776429;81;20108;-88
2022/04/14 11:27:21;;;;;;;5.83;2.98;;;;;;;20.63;25.66;99555.95;1779457;81;21034;-89
2022/04/14 11:29:57;;;;;;;5.75;2.90;;;;;;;21.01;25.52;99551.51;1779740;81;21082;-89
2022/04/14 11:32:37;;;;;;;5.62;2.80;;;;;;;21.49;25.71;99556.05;1779164;81;21011;-89
2022/04/14 11:35:13;;;;;;;8.48;3.20;;;;;;;21.70;24.36;99546.36;1779254;81;21100;-90
2022/04/14 11:37:41;;;;;;;6.05;2.90;;;;;;;21.93;24.53;99543.57;1779297;81;21010;-89
2022/04/14 11:40:23;;;;;;;7.37;3.10;;;;;;;22.07;23.43;99546.64;1779594;81;21043;-88